Terminal Aerodrome Forecast
Issued by NWS Greer, SC

Home | Current Version | Previous Version | Text Only | Print | Product List | Glossary On
Versions: 1 2 3 4 5 6 7 8 9 10 11 12 13 14 15 16 17 18 19 20 21
222
FTUS42 KGSP 180800 AAA
TAFGSP
TAF AMD
KGSP 180800Z 1808/1906 VRB03KT 1SM BR OVC004
      TEMPO 1808/1812 1/4SM FG VV001
     FM181300 03005KT P6SM SCT250
     FM190000 08004KT P6SM BKN060
     FM190400 06004KT P6SM OVC030=

USA.gov is the U.S. government's official web portal to all federal, state and local government web resources and services.